CSN8560 ZGHZ-ZHHH
Flight info
| Callsign | CSN8560 |
|---|---|
| Flight time | 1h 17m |
| Altitude | 29100 |
| Route | TEPID W22 YIN A461 BUBDA W56 UPMAT |
| Aircraft | A320/M-SDE3FGHIRWY/LB1 |
Departure
| Time | 2026-05-07 04:52 |
|---|---|
| Airport | Huizhou Pingtan Airport (ZGHZ) |
Arrival
| Time | 2026-05-07 06:09 |
|---|---|
| Airport | Wuhan Tianhe International Airport (ZHHH) |
| Time | Latitude | Longitude | Altitude | Speed | Heading |
|---|---|---|---|---|---|
| 2026-05-07 04:38 | 23.05188 | 114.60470 | 61 ft | 0 kts | 358° |
| 2026-05-07 04:41 | 23.05186 | 114.60470 | 62 ft | 2 kts | 358° |
| 2026-05-07 04:42 | 23.05162 | 114.60471 | 47 ft | 4 kts | 358° |
| 2026-05-07 04:42 | 23.05139 | 114.60472 | 42 ft | 4 kts | 358° |
| 2026-05-07 04:42 | 23.05122 | 114.60472 | 42 ft | 4 kts | 40° |
| 2026-05-07 04:42 | 23.05116 | 114.60450 | 44 ft | 4 kts | 90° |
| 2026-05-07 04:43 | 23.05115 | 114.60423 | 44 ft | 4 kts | 88° |
| 2026-05-07 04:43 | 23.05114 | 114.60393 | 45 ft | 4 kts | 88° |
| 2026-05-07 04:43 | 23.05113 | 114.60370 | 48 ft | 4 kts | 88° |
| 2026-05-07 04:43 | 23.05112 | 114.60341 | 53 ft | 4 kts | 88° |
| 2026-05-07 04:44 | 23.05111 | 114.60332 | 53 ft | 1 kts | 88° |
| 2026-05-07 04:46 | 23.05111 | 114.60333 | 53 ft | 0 kts | 88° |
| 2026-05-07 04:46 | 23.05111 | 114.60337 | 53 ft | 2 kts | 88° |
| 2026-05-07 04:47 | 23.05110 | 114.60373 | 50 ft | 8 kts | 102° |
| 2026-05-07 04:47 | 23.05058 | 114.60412 | 47 ft | 11 kts | 171° |
| 2026-05-07 04:47 | 23.04981 | 114.60415 | 45 ft | 11 kts | 177° |
| 2026-05-07 04:47 | 23.04906 | 114.60415 | 48 ft | 9 kts | 195° |
| 2026-05-07 04:48 | 23.04871 | 114.60360 | 50 ft | 10 kts | 256° |
| 2026-05-07 04:48 | 23.04864 | 114.60267 | 53 ft | 15 kts | 268° |
| 2026-05-07 04:48 | 23.04859 | 114.60143 | 56 ft | 18 kts | 267° |
| 2026-05-07 04:48 | 23.04853 | 114.59997 | 58 ft | 21 kts | 268° |
| 2026-05-07 04:49 | 23.04846 | 114.59827 | 49 ft | 25 kts | 267° |
| 2026-05-07 04:49 | 23.04837 | 114.59627 | 50 ft | 27 kts | 268° |
| 2026-05-07 04:49 | 23.04831 | 114.59419 | 47 ft | 28 kts | 268° |
| 2026-05-07 04:49 | 23.04821 | 114.59195 | 45 ft | 30 kts | 267° |
| 2026-05-07 04:50 | 23.04814 | 114.59030 | 44 ft | 15 kts | 269° |
| 2026-05-07 04:50 | 23.04825 | 114.58925 | 48 ft | 11 kts | 293° |
| 2026-05-07 04:50 | 23.04824 | 114.58872 | 40 ft | 6 kts | 215° |
| 2026-05-07 04:50 | 23.04810 | 114.58888 | 39 ft | 2 kts | 89° |
| 2026-05-07 04:51 | 23.04811 | 114.58919 | 39 ft | 12 kts | 88° |
| 2026-05-07 04:51 | 23.04822 | 114.59210 | 45 ft | 76 kts | 88° |
| 2026-05-07 04:51 | 23.04854 | 114.60017 | 56 ft | 136 kts | 88° |
| 2026-05-07 04:51 | 23.04893 | 114.61207 | 262 ft | 166 kts | 89° |
| 2026-05-07 04:52 | 23.04940 | 114.62426 | 1013 ft | 159 kts | 89° |
| 2026-05-07 04:52 | 23.05112 | 114.63600 | 1669 ft | 161 kts | 62° |
| 2026-05-07 04:52 | 23.05931 | 114.64468 | 2063 ft | 177 kts | 21° |
| 2026-05-07 04:52 | 23.07181 | 114.64587 | 2449 ft | 190 kts | 341° |
| 2026-05-07 04:53 | 23.08418 | 114.63980 | 2789 ft | 205 kts | 331° |
| 2026-05-07 04:53 | 23.09744 | 114.63235 | 3164 ft | 218 kts | 332° |
| 2026-05-07 04:53 | 23.11105 | 114.62464 | 3728 ft | 223 kts | 331° |
| 2026-05-07 04:53 | 23.12486 | 114.61681 | 4460 ft | 224 kts | 330° |
| 2026-05-07 04:54 | 23.13870 | 114.60892 | 5058 ft | 226 kts | 331° |
| 2026-05-07 04:54 | 23.15273 | 114.60106 | 5664 ft | 227 kts | 330° |
| 2026-05-07 04:54 | 23.16597 | 114.59196 | 6271 ft | 226 kts | 314° |
| 2026-05-07 04:54 | 23.17467 | 114.57787 | 6859 ft | 225 kts | 289° |
| 2026-05-07 04:55 | 23.17716 | 114.56135 | 7446 ft | 223 kts | 266° |
| 2026-05-07 04:55 | 23.17517 | 114.54464 | 7999 ft | 224 kts | 261° |
| 2026-05-07 04:55 | 23.17302 | 114.52701 | 8208 ft | 250 kts | 262° |
| 2026-05-07 04:55 | 23.17067 | 114.50730 | 8479 ft | 272 kts | 262° |
| 2026-05-07 04:56 | 23.16828 | 114.48678 | 9250 ft | 275 kts | 262° |
| 2026-05-07 04:56 | 23.16588 | 114.46610 | 10026 ft | 277 kts | 262° |
| 2026-05-07 04:56 | 23.16335 | 114.44484 | 10373 ft | 296 kts | 262° |
| 2026-05-07 04:56 | 23.16051 | 114.42166 | 10497 ft | 321 kts | 262° |
| 2026-05-07 04:57 | 23.15744 | 114.39674 | 10590 ft | 345 kts | 262° |
| 2026-05-07 04:57 | 23.15437 | 114.37054 | 11056 ft | 353 kts | 262° |
| 2026-05-07 04:57 | 23.15129 | 114.34401 | 11681 ft | 356 kts | 262° |
| 2026-05-07 04:57 | 23.14814 | 114.31716 | 12300 ft | 360 kts | 262° |
| 2026-05-07 04:58 | 23.14495 | 114.29015 | 12924 ft | 363 kts | 262° |
| 2026-05-07 04:58 | 23.14170 | 114.26283 | 13527 ft | 366 kts | 262° |
| 2026-05-07 04:58 | 23.13841 | 114.23526 | 14070 ft | 370 kts | 262° |
| 2026-05-07 04:58 | 23.13506 | 114.20709 | 14582 ft | 373 kts | 263° |
| 2026-05-07 04:59 | 23.13503 | 114.17880 | 15102 ft | 377 kts | 277° |
| 2026-05-07 04:59 | 23.14193 | 114.15126 | 15603 ft | 382 kts | 291° |
| 2026-05-07 04:59 | 23.15563 | 114.12639 | 16090 ft | 389 kts | 307° |
| 2026-05-07 04:59 | 23.17548 | 114.10607 | 16551 ft | 397 kts | 321° |
| 2026-05-07 05:00 | 23.19827 | 114.08892 | 17030 ft | 400 kts | 322° |
| 2026-05-07 05:00 | 23.22125 | 114.07175 | 17495 ft | 403 kts | 322° |
| 2026-05-07 05:00 | 23.24444 | 114.05443 | 17948 ft | 406 kts | 322° |
| 2026-05-07 05:00 | 23.26718 | 114.03618 | 18366 ft | 406 kts | 316° |
| 2026-05-07 05:01 | 23.28661 | 114.01403 | 18753 ft | 405 kts | 305° |
| 2026-05-07 05:01 | 23.30189 | 113.98841 | 19153 ft | 404 kts | 295° |
| 2026-05-07 05:01 | 23.31325 | 113.96054 | 19547 ft | 404 kts | 291° |
| 2026-05-07 05:01 | 23.32416 | 113.93227 | 19949 ft | 406 kts | 291° |
| 2026-05-07 05:02 | 23.33514 | 113.90386 | 20346 ft | 408 kts | 291° |
| 2026-05-07 05:02 | 23.34621 | 113.87531 | 20739 ft | 411 kts | 291° |
| 2026-05-07 05:02 | 23.35734 | 113.84661 | 21122 ft | 413 kts | 291° |
| 2026-05-07 05:02 | 23.36849 | 113.81775 | 21501 ft | 414 kts | 291° |
| 2026-05-07 05:03 | 23.37968 | 113.78873 | 21878 ft | 417 kts | 291° |
| 2026-05-07 05:03 | 23.39093 | 113.75960 | 22254 ft | 419 kts | 291° |
| 2026-05-07 05:03 | 23.40227 | 113.73028 | 22645 ft | 420 kts | 291° |
| 2026-05-07 05:03 | 23.41353 | 113.70116 | 23010 ft | 422 kts | 291° |
| 2026-05-07 05:04 | 23.42491 | 113.67171 | 23355 ft | 424 kts | 291° |
| 2026-05-07 05:04 | 23.43636 | 113.64202 | 23665 ft | 426 kts | 291° |
| 2026-05-07 05:04 | 23.44779 | 113.61229 | 23955 ft | 427 kts | 291° |
| 2026-05-07 05:04 | 23.45929 | 113.58236 | 24239 ft | 429 kts | 291° |
| 2026-05-07 05:05 | 23.47080 | 113.55236 | 24524 ft | 430 kts | 291° |
| 2026-05-07 05:05 | 23.48234 | 113.52228 | 24803 ft | 432 kts | 291° |
| 2026-05-07 05:05 | 23.49391 | 113.49213 | 25084 ft | 433 kts | 291° |
| 2026-05-07 05:05 | 23.50612 | 113.46209 | 25356 ft | 435 kts | 297° |
| 2026-05-07 05:06 | 23.52349 | 113.43494 | 25614 ft | 440 kts | 310° |
| 2026-05-07 05:06 | 23.54654 | 113.41288 | 25891 ft | 445 kts | 323° |
| 2026-05-07 05:06 | 23.57422 | 113.39735 | 26165 ft | 452 kts | 337° |
| 2026-05-07 05:06 | 23.60497 | 113.38957 | 26429 ft | 459 kts | 351° |
| 2026-05-07 05:07 | 23.62670 | 113.38900 | 26589 ft | 464 kts | 358° |
| 2026-05-07 05:07 | 23.65900 | 113.39043 | 26837 ft | 466 kts | 359° |
| 2026-05-07 05:07 | 23.69145 | 113.39195 | 27087 ft | 467 kts | 359° |
| 2026-05-07 05:07 | 23.72391 | 113.39351 | 27335 ft | 468 kts | 359° |
| 2026-05-07 05:08 | 23.75643 | 113.39508 | 27578 ft | 469 kts | 359° |
| 2026-05-07 05:08 | 23.78912 | 113.39664 | 27837 ft | 470 kts | 358° |
| 2026-05-07 05:08 | 23.82180 | 113.39817 | 28172 ft | 469 kts | 358° |
| 2026-05-07 05:08 | 23.85408 | 113.39963 | 28550 ft | 467 kts | 358° |
| 2026-05-07 05:09 | 23.88654 | 113.40108 | 28915 ft | 465 kts | 358° |
| 2026-05-07 05:09 | 23.91881 | 113.40252 | 29039 ft | 465 kts | 358° |
| 2026-05-07 05:09 | 23.98421 | 113.40545 | 29053 ft | 473 kts | 358° |
| 2026-05-07 05:10 | 24.05002 | 113.40852 | 29053 ft | 473 kts | 358° |
| 2026-05-07 05:10 | 24.11564 | 113.41157 | 29052 ft | 470 kts | 358° |
| 2026-05-07 05:11 | 24.18092 | 113.41460 | 29056 ft | 469 kts | 358° |
| 2026-05-07 05:11 | 24.24609 | 113.41719 | 29059 ft | 469 kts | 357° |
| 2026-05-07 05:12 | 24.31136 | 113.41915 | 29057 ft | 469 kts | 357° |
| 2026-05-07 05:12 | 24.37657 | 113.42111 | 29071 ft | 468 kts | 357° |
| 2026-05-07 05:13 | 24.44159 | 113.42287 | 29070 ft | 467 kts | 357° |
| 2026-05-07 05:13 | 24.50655 | 113.42477 | 29064 ft | 467 kts | 357° |
| 2026-05-07 05:14 | 24.57156 | 113.42700 | 29059 ft | 467 kts | 357° |
| 2026-05-07 05:14 | 24.63654 | 113.42926 | 29050 ft | 470 kts | 357° |
| 2026-05-07 05:15 | 24.70248 | 113.43133 | 29053 ft | 472 kts | 358° |
| 2026-05-07 05:15 | 24.76810 | 113.43310 | 29060 ft | 472 kts | 357° |
| 2026-05-07 05:16 | 24.83376 | 113.43479 | 29052 ft | 472 kts | 357° |
| 2026-05-07 05:16 | 24.89948 | 113.43658 | 29054 ft | 472 kts | 358° |
| 2026-05-07 05:17 | 24.96516 | 113.43840 | 29058 ft | 472 kts | 358° |
| 2026-05-07 05:17 | 25.03102 | 113.44011 | 29036 ft | 474 kts | 358° |
| 2026-05-07 05:18 | 25.09693 | 113.44188 | 29035 ft | 474 kts | 358° |
| 2026-05-07 05:18 | 25.16293 | 113.44374 | 29038 ft | 475 kts | 358° |
| 2026-05-07 05:19 | 25.22898 | 113.44561 | 29050 ft | 475 kts | 358° |
| 2026-05-07 05:19 | 25.29519 | 113.44739 | 29036 ft | 477 kts | 358° |
| 2026-05-07 05:20 | 25.36153 | 113.44917 | 29036 ft | 477 kts | 358° |
| 2026-05-07 05:20 | 25.42808 | 113.45103 | 29039 ft | 478 kts | 358° |
| 2026-05-07 05:21 | 25.52789 | 113.45384 | 29057 ft | 479 kts | 358° |
| 2026-05-07 05:22 | 25.59455 | 113.45577 | 29053 ft | 479 kts | 358° |
| 2026-05-07 05:22 | 25.66119 | 113.45768 | 29054 ft | 479 kts | 358° |
| 2026-05-07 05:23 | 25.72789 | 113.45957 | 29055 ft | 480 kts | 358° |
| 2026-05-07 05:23 | 25.79477 | 113.46146 | 29068 ft | 480 kts | 358° |
| 2026-05-07 05:24 | 25.86139 | 113.46339 | 29059 ft | 480 kts | 358° |
| 2026-05-07 05:24 | 25.92795 | 113.46303 | 29059 ft | 478 kts | 354° |
| 2026-05-07 05:25 | 25.99426 | 113.45966 | 29060 ft | 477 kts | 353° |
| 2026-05-07 05:25 | 26.06058 | 113.45613 | 29056 ft | 477 kts | 354° |
| 2026-05-07 05:26 | 26.12705 | 113.45346 | 29060 ft | 478 kts | 354° |
| 2026-05-07 05:26 | 26.19355 | 113.45116 | 29056 ft | 478 kts | 354° |
| 2026-05-07 05:27 | 26.26007 | 113.44872 | 29054 ft | 478 kts | 354° |
| 2026-05-07 05:27 | 26.32695 | 113.44614 | 29054 ft | 478 kts | 354° |
| 2026-05-07 05:28 | 26.39340 | 113.44353 | 29053 ft | 478 kts | 354° |
| 2026-05-07 05:28 | 26.45996 | 113.44095 | 29052 ft | 478 kts | 354° |
| 2026-05-07 05:29 | 26.52643 | 113.43839 | 29053 ft | 478 kts | 354° |
| 2026-05-07 05:29 | 26.59290 | 113.43586 | 29055 ft | 478 kts | 354° |
| 2026-05-07 05:30 | 26.65947 | 113.43328 | 29068 ft | 479 kts | 355° |
| 2026-05-07 05:30 | 26.72616 | 113.43075 | 29054 ft | 480 kts | 355° |
| 2026-05-07 05:31 | 26.79295 | 113.42818 | 29051 ft | 480 kts | 355° |
| 2026-05-07 05:31 | 26.85994 | 113.42556 | 29060 ft | 484 kts | 355° |
| 2026-05-07 05:32 | 26.92718 | 113.42298 | 29065 ft | 481 kts | 355° |
| 2026-05-07 05:32 | 26.99457 | 113.42040 | 29054 ft | 486 kts | 355° |
| 2026-05-07 05:33 | 27.06214 | 113.41781 | 29061 ft | 486 kts | 355° |
| 2026-05-07 05:33 | 27.12966 | 113.41520 | 29061 ft | 486 kts | 355° |
| 2026-05-07 05:34 | 27.19717 | 113.41255 | 29060 ft | 485 kts | 355° |
| 2026-05-07 05:34 | 27.26472 | 113.40994 | 29062 ft | 486 kts | 354° |
| 2026-05-07 05:35 | 27.33272 | 113.40735 | 29048 ft | 486 kts | 355° |
| 2026-05-07 05:35 | 27.40053 | 113.40734 | 29048 ft | 488 kts | 358° |
| 2026-05-07 05:36 | 27.46805 | 113.40966 | 29052 ft | 488 kts | 358° |
| 2026-05-07 05:36 | 27.53644 | 113.41183 | 29048 ft | 488 kts | 357° |
| 2026-05-07 05:37 | 27.60433 | 113.41321 | 29043 ft | 488 kts | 356° |
| 2026-05-07 05:37 | 27.67237 | 113.41469 | 29041 ft | 489 kts | 358° |
| 2026-05-07 05:38 | 27.74007 | 113.41985 | 29044 ft | 491 kts | 1° |
| 2026-05-07 05:38 | 27.80860 | 113.42721 | 29054 ft | 492 kts | 359° |
| 2026-05-07 05:39 | 27.87681 | 113.43404 | 29040 ft | 492 kts | 0° |
| 2026-05-07 05:39 | 27.94501 | 113.44005 | 29040 ft | 491 kts | 360° |
| 2026-05-07 05:40 | 28.01326 | 113.44573 | 29044 ft | 492 kts | 359° |
| 2026-05-07 05:40 | 28.07044 | 113.45062 | 29058 ft | 492 kts | 358° |
| 2026-05-07 05:41 | 28.13865 | 113.45624 | 29054 ft | 491 kts | 357° |
| 2026-05-07 05:41 | 28.20689 | 113.46100 | 29072 ft | 493 kts | 357° |
| 2026-05-07 05:42 | 28.27539 | 113.46559 | 29068 ft | 492 kts | 357° |
| 2026-05-07 05:42 | 28.34345 | 113.47035 | 29057 ft | 489 kts | 357° |
| 2026-05-07 05:43 | 28.41139 | 113.47527 | 29052 ft | 489 kts | 357° |
| 2026-05-07 05:43 | 28.47940 | 113.48024 | 29054 ft | 489 kts | 357° |
| 2026-05-07 05:44 | 28.54733 | 113.48512 | 29051 ft | 489 kts | 357° |
| 2026-05-07 05:44 | 28.61536 | 113.48998 | 29078 ft | 489 kts | 357° |
| 2026-05-07 05:45 | 28.68319 | 113.49485 | 29065 ft | 488 kts | 357° |
| 2026-05-07 05:45 | 28.75105 | 113.49968 | 29067 ft | 489 kts | 357° |
| 2026-05-07 05:46 | 28.81907 | 113.50459 | 29067 ft | 489 kts | 357° |
| 2026-05-07 05:46 | 28.88704 | 113.50949 | 29090 ft | 489 kts | 357° |
| 2026-05-07 05:47 | 28.95494 | 113.51441 | 29079 ft | 488 kts | 357° |
| 2026-05-07 05:47 | 29.02277 | 113.51930 | 29072 ft | 489 kts | 357° |
| 2026-05-07 05:48 | 29.09067 | 113.52422 | 29074 ft | 489 kts | 357° |
| 2026-05-07 05:48 | 29.15856 | 113.52905 | 29076 ft | 488 kts | 357° |
| 2026-05-07 05:49 | 29.22642 | 113.53388 | 29073 ft | 489 kts | 357° |
| 2026-05-07 05:49 | 29.29430 | 113.53882 | 29076 ft | 489 kts | 357° |
| 2026-05-07 05:50 | 29.36222 | 113.54438 | 28616 ft | 491 kts | 358° |
| 2026-05-07 05:50 | 29.39636 | 113.54744 | 28104 ft | 491 kts | 358° |
| 2026-05-07 05:50 | 29.43047 | 113.55054 | 27603 ft | 492 kts | 359° |
| 2026-05-07 05:50 | 29.46460 | 113.55364 | 27114 ft | 493 kts | 359° |
| 2026-05-07 05:51 | 29.49873 | 113.55670 | 26638 ft | 493 kts | 359° |
| 2026-05-07 05:51 | 29.53299 | 113.55974 | 26153 ft | 493 kts | 359° |
| 2026-05-07 05:51 | 29.56722 | 113.56273 | 25687 ft | 494 kts | 359° |
| 2026-05-07 05:51 | 29.60149 | 113.56569 | 25119 ft | 494 kts | 359° |
| 2026-05-07 05:52 | 29.63580 | 113.56863 | 24606 ft | 495 kts | 359° |
| 2026-05-07 05:52 | 29.67013 | 113.57157 | 24101 ft | 493 kts | 359° |
| 2026-05-07 05:52 | 29.70463 | 113.57456 | 23585 ft | 489 kts | 360° |
| 2026-05-07 05:52 | 29.73806 | 113.57749 | 22999 ft | 485 kts | 360° |
| 2026-05-07 05:53 | 29.77202 | 113.58047 | 22408 ft | 481 kts | 360° |
| 2026-05-07 05:53 | 29.80523 | 113.58337 | 21596 ft | 477 kts | 0° |
| 2026-05-07 05:53 | 29.83816 | 113.58622 | 20484 ft | 470 kts | 0° |
| 2026-05-07 05:53 | 29.87045 | 113.58904 | 19515 ft | 462 kts | 1° |
| 2026-05-07 05:54 | 29.90238 | 113.59184 | 18686 ft | 456 kts | 1° |
| 2026-05-07 05:54 | 29.93373 | 113.59585 | 17808 ft | 452 kts | 8° |
| 2026-05-07 05:54 | 29.96383 | 113.60530 | 17011 ft | 446 kts | 17° |
| 2026-05-07 05:54 | 29.99222 | 113.61902 | 16232 ft | 441 kts | 21° |
| 2026-05-07 05:55 | 30.02029 | 113.63305 | 15463 ft | 438 kts | 21° |
| 2026-05-07 05:55 | 30.04823 | 113.64698 | 14726 ft | 436 kts | 21° |
| 2026-05-07 05:55 | 30.07607 | 113.66085 | 14014 ft | 434 kts | 21° |
| 2026-05-07 05:55 | 30.10364 | 113.67460 | 13230 ft | 428 kts | 21° |
| 2026-05-07 05:56 | 30.13053 | 113.68806 | 12555 ft | 418 kts | 21° |
| 2026-05-07 05:56 | 30.15714 | 113.70136 | 11845 ft | 413 kts | 22° |
| 2026-05-07 05:56 | 30.18307 | 113.71433 | 11302 ft | 396 kts | 22° |
| 2026-05-07 05:56 | 30.20746 | 113.72655 | 11173 ft | 368 kts | 22° |
| 2026-05-07 05:57 | 30.23017 | 113.73793 | 11050 ft | 344 kts | 22° |
| 2026-05-07 05:57 | 30.25154 | 113.74861 | 10936 ft | 327 kts | 22° |
| 2026-05-07 05:57 | 30.27199 | 113.75883 | 10815 ft | 315 kts | 21° |
| 2026-05-07 05:57 | 30.29172 | 113.76869 | 10696 ft | 303 kts | 20° |
| 2026-05-07 05:58 | 30.31086 | 113.77827 | 10539 ft | 295 kts | 20° |
| 2026-05-07 05:58 | 30.32962 | 113.78768 | 10454 ft | 293 kts | 21° |
| 2026-05-07 05:58 | 30.34827 | 113.79703 | 10329 ft | 292 kts | 21° |
| 2026-05-07 05:58 | 30.36679 | 113.80630 | 10088 ft | 288 kts | 24° |
| 2026-05-07 05:59 | 30.38508 | 113.81548 | 9730 ft | 286 kts | 24° |
| 2026-05-07 05:59 | 30.40302 | 113.82559 | 9212 ft | 288 kts | 34° |
| 2026-05-07 05:59 | 30.41828 | 113.84037 | 8695 ft | 284 kts | 49° |
| 2026-05-07 05:59 | 30.43058 | 113.85805 | 8208 ft | 280 kts | 52° |
| 2026-05-07 06:00 | 30.44259 | 113.87558 | 7712 ft | 276 kts | 52° |
| 2026-05-07 06:00 | 30.45447 | 113.89285 | 7231 ft | 273 kts | 52° |
| 2026-05-07 06:00 | 30.46631 | 113.91002 | 6753 ft | 272 kts | 52° |
| 2026-05-07 06:00 | 30.47805 | 113.92704 | 6270 ft | 268 kts | 52° |
| 2026-05-07 06:01 | 30.49025 | 113.94321 | 5768 ft | 265 kts | 43° |
| 2026-05-07 06:01 | 30.50403 | 113.95713 | 5264 ft | 261 kts | 41° |
| 2026-05-07 06:01 | 30.51763 | 113.97090 | 4793 ft | 258 kts | 41° |
| 2026-05-07 06:01 | 30.53130 | 113.98478 | 4390 ft | 254 kts | 41° |
| 2026-05-07 06:02 | 30.54435 | 113.99804 | 4146 ft | 244 kts | 41° |
| 2026-05-07 06:02 | 30.55669 | 114.01059 | 4016 ft | 228 kts | 41° |
| 2026-05-07 06:02 | 30.56819 | 114.02234 | 3991 ft | 211 kts | 41° |
| 2026-05-07 06:02 | 30.57881 | 114.03329 | 3997 ft | 199 kts | 41° |
| 2026-05-07 06:03 | 30.58901 | 114.04371 | 3994 ft | 190 kts | 41° |
| 2026-05-07 06:03 | 30.59857 | 114.05345 | 3995 ft | 177 kts | 41° |
| 2026-05-07 06:03 | 30.60749 | 114.06254 | 3908 ft | 165 kts | 41° |
| 2026-05-07 06:03 | 30.61589 | 114.07109 | 3732 ft | 158 kts | 41° |
| 2026-05-07 06:04 | 30.62400 | 114.07936 | 3532 ft | 152 kts | 41° |
| 2026-05-07 06:04 | 30.63181 | 114.08732 | 3356 ft | 146 kts | 40° |
| 2026-05-07 06:04 | 30.63935 | 114.09501 | 3169 ft | 142 kts | 40° |
| 2026-05-07 06:04 | 30.64673 | 114.10253 | 2982 ft | 140 kts | 39° |
| 2026-05-07 06:05 | 30.65402 | 114.10997 | 2799 ft | 139 kts | 40° |
| 2026-05-07 06:05 | 30.66130 | 114.11739 | 2619 ft | 139 kts | 39° |
| 2026-05-07 06:05 | 30.66856 | 114.12479 | 2444 ft | 139 kts | 39° |
| 2026-05-07 06:05 | 30.67582 | 114.13220 | 2250 ft | 139 kts | 39° |
| 2026-05-07 06:06 | 30.68305 | 114.13958 | 2065 ft | 138 kts | 37° |
| 2026-05-07 06:06 | 30.69022 | 114.14690 | 1880 ft | 138 kts | 37° |
| 2026-05-07 06:06 | 30.69749 | 114.15432 | 1697 ft | 139 kts | 39° |
| 2026-05-07 06:06 | 30.70463 | 114.16162 | 1522 ft | 136 kts | 38° |
| 2026-05-07 06:07 | 30.71179 | 114.16893 | 1337 ft | 136 kts | 39° |
| 2026-05-07 06:07 | 30.71885 | 114.17615 | 1168 ft | 134 kts | 38° |
| 2026-05-07 06:07 | 30.72583 | 114.18329 | 984 ft | 131 kts | 38° |
| 2026-05-07 06:07 | 30.73272 | 114.19033 | 812 ft | 133 kts | 39° |
| 2026-05-07 06:08 | 30.73972 | 114.19748 | 635 ft | 134 kts | 38° |
| 2026-05-07 06:08 | 30.74682 | 114.20472 | 474 ft | 138 kts | 42° |
| 2026-05-07 06:08 | 30.75399 | 114.21220 | 299 ft | 140 kts | 40° |
| 2026-05-07 06:08 | 30.76130 | 114.21960 | 107 ft | 137 kts | 41° |
| 2026-05-07 06:09 | 30.76734 | 114.22571 | 105 ft | 90 kts | 41° |
| 2026-05-07 06:09 | 30.77080 | 114.22926 | 104 ft | 44 kts | 41° |
| 2026-05-07 06:09 | 30.77290 | 114.23062 | 107 ft | 27 kts | 359° |
| 2026-05-07 06:09 | 30.77408 | 114.23110 | 106 ft | 17 kts | 15° |
| 2026-05-07 06:10 | 30.77528 | 114.23145 | 107 ft | 18 kts | 20° |
| 2026-05-07 06:10 | 30.77631 | 114.23222 | 107 ft | 16 kts | 1° |
| 2026-05-07 06:10 | 30.77708 | 114.23143 | 108 ft | 15 kts | 311° |
| 2026-05-07 06:10 | 30.77777 | 114.23052 | 107 ft | 16 kts | 312° |
| 2026-05-07 06:11 | 30.77857 | 114.22948 | 107 ft | 19 kts | 311° |
| 2026-05-07 06:11 | 30.77884 | 114.22847 | 107 ft | 13 kts | 234° |
| 2026-05-07 06:11 | 30.77838 | 114.22799 | 107 ft | 15 kts | 221° |
| 2026-05-07 06:11 | 30.77700 | 114.22656 | 107 ft | 24 kts | 222° |
| 2026-05-07 06:12 | 30.77609 | 114.22563 | 107 ft | 28 kts | 220° |
| 2026-05-07 06:12 | 30.77458 | 114.22411 | 107 ft | 29 kts | 221° |
| 2026-05-07 06:12 | 30.77308 | 114.22256 | 107 ft | 25 kts | 221° |
| 2026-05-07 06:12 | 30.77230 | 114.22172 | 107 ft | 12 kts | 233° |
| 2026-05-07 06:13 | 30.77222 | 114.22088 | 107 ft | 10 kts | 283° |
| 2026-05-07 06:13 | 30.77236 | 114.22015 | 107 ft | 9 kts | 282° |
| 2026-05-07 06:13 | 30.77239 | 114.21998 | 107 ft | 0 kts | 282° |
| 2026-05-07 06:13 | 30.77239 | 114.21997 | 107 ft | 0 kts | 282° |